createdAt,value
2023-04-12T00:00:45.044Z,82.74536133
2023-04-12T00:01:45.674Z,82.74536133
2023-04-12T00:03:16.818Z,82.74536133
2023-04-12T00:04:17.382Z,82.74536133
2023-04-12T00:05:17.754Z,82.64160156
2023-04-12T00:06:18.078Z,82.84301758
2023-04-12T00:07:18.656Z,82.84301758
2023-04-12T00:08:19.182Z,83.05053711
2023-04-12T00:09:19.782Z,83.05053711
2023-04-12T00:10:20.153Z,83.05053711
2023-04-12T00:11:21.557Z,83.05053711
2023-04-12T00:12:22.139Z,83.15429688
2023-04-12T00:13:22.624Z,83.15429688
2023-04-12T00:14:23.163Z,83.25195313
2023-04-12T00:15:23.606Z,83.35571289
2023-04-12T00:16:24.128Z,83.35571289
2023-04-12T00:17:24.672Z,83.56323242
2023-04-12T00:18:25.339Z,83.76464844
2023-04-12T00:19:25.677Z,83.76464844
2023-04-12T00:20:26.563Z,83.76464844
2023-04-12T00:21:27.021Z,83.76464844
2023-04-12T00:22:27.479Z,83.56323242
2023-04-12T00:23:28.073Z,83.25195313
2023-04-12T00:24:28.591Z,82.91015625
2023-04-12T00:25:29.077Z,82.64160156
2023-04-12T00:26:29.535Z,82.84301758
2023-04-12T00:27:30.005Z,83.05053711
2023-04-12T00:28:30.486Z,83.15429688
2023-04-12T00:29:31.073Z,83.05053711
2023-04-12T00:30:31.552Z,83.15429688
2023-04-12T00:31:32.059Z,83.45947266
2023-04-12T00:32:32.574Z,83.35571289
2023-04-12T00:33:32.987Z,83.25195313
2023-04-12T00:34:33.547Z,83.25195313
2023-04-12T00:35:34.021Z,83.45947266
2023-04-12T00:36:34.678Z,83.56323242
2023-04-12T00:37:35.231Z,83.35571289
2023-04-12T00:38:35.729Z,83.25195313
2023-04-12T00:39:36.264Z,82.94677734
2023-04-12T00:40:36.744Z,82.94677734
2023-04-12T00:41:37.260Z,83.05053711
2023-04-12T00:42:37.732Z,83.05053711
2023-04-12T00:43:38.188Z,83.35571289
2023-04-12T00:44:38.700Z,83.15429688
2023-04-12T00:45:39.215Z,83.05053711
2023-04-12T00:46:39.720Z,83.05053711
2023-04-12T00:47:40.235Z,83.25195313
2023-04-12T00:48:40.807Z,83.56323242
2023-04-12T00:49:42.201Z,83.66088867
2023-04-12T00:50:43.724Z,83.66088867
2023-04-12T00:51:44.615Z,83.8684082
2023-04-12T00:52:45.663Z,83.76464844
2023-04-12T00:54:16.383Z,83.76464844
2023-04-12T00:55:17.512Z,83.76464844
2023-04-12T00:56:18.156Z,83.76464844
2023-04-12T00:57:18.850Z,83.76464844
2023-04-12T00:58:19.862Z,83.66088867
2023-04-12T00:59:20.553Z,83.56323242
2023-04-12T01:00:22.149Z,83.76464844
2023-04-12T01:01:22.582Z,83.66088867
2023-04-12T01:02:23.285Z,83.8684082
2023-04-12T01:03:24.063Z,83.8684082
2023-04-12T01:04:24.142Z,83.97216797
2023-04-12T01:05:24.612Z,83.76464844
2023-04-12T01:06:25.057Z,83.45947266
2023-04-12T01:07:25.532Z,83.45947266
2023-04-12T01:08:26.048Z,83.39233398
2023-04-12T01:09:26.555Z,83.29467773
2023-04-12T01:10:27.031Z,83.39233398
2023-04-12T01:11:27.470Z,83.59985352
2023-04-12T01:12:28.185Z,83.80737305
2023-04-12T01:13:28.852Z,84.00878906
2023-04-12T01:14:29.304Z,84.11254883
2023-04-12T01:15:29.819Z,84.00878906
2023-04-12T01:16:30.256Z,83.9050293
2023-04-12T01:17:30.796Z,83.59985352
2023-04-12T01:18:31.187Z,83.39233398
2023-04-12T01:19:31.701Z,83.29467773
2023-04-12T01:20:33.134Z,83.49609375
2023-04-12T01:21:33.550Z,83.49609375
2023-04-12T01:22:33.976Z,83.70361328
2023-04-12T01:23:34.515Z,83.9050293
2023-04-12T01:24:35.086Z,84.00878906
2023-04-12T01:25:35.626Z,84.00878906
2023-04-12T01:26:36.209Z,84.00878906
2023-04-12T01:27:36.629Z,83.66088867
2023-04-12T01:28:37.083Z,83.76464844
2023-04-12T01:29:37.613Z,83.66088867
2023-04-12T01:30:38.171Z,83.45947266
2023-04-12T01:31:38.725Z,83.25195313
2023-04-12T01:32:39.213Z,83.05053711
2023-04-12T01:33:39.725Z,82.64160156
2023-04-12T01:34:40.208Z,82.33642578
2023-04-12T01:35:40.737Z,82.12890625
2023-04-12T01:36:41.161Z,82.12890625
2023-04-12T01:37:41.659Z,82.23266602
2023-04-12T01:38:42.182Z,82.33642578
2023-04-12T01:39:42.714Z,82.5378418
2023-04-12T01:40:43.242Z,82.64160156
2023-04-12T01:41:43.693Z,82.64160156
2023-04-12T01:42:44.178Z,82.64160156
2023-04-12T01:43:45.152Z,82.43408203
2023-04-12T01:45:15.891Z,82.64160156
2023-04-12T01:46:16.493Z,82.64160156
2023-04-12T01:47:16.917Z,82.5378418
2023-04-12T01:48:17.369Z,82.64160156
2023-04-12T01:49:17.855Z,82.74536133
2023-04-12T01:50:18.303Z,82.5378418
2023-04-12T01:51:19.256Z,82.23266602
2023-04-12T01:52:19.842Z,82.33642578
2023-04-12T01:53:20.375Z,82.5378418
2023-04-12T01:54:20.824Z,82.5378418
2023-04-12T01:55:21.291Z,82.43408203
2023-04-12T01:56:21.736Z,82.43408203
2023-04-12T01:57:22.296Z,82.43408203
2023-04-12T01:58:22.812Z,82.23266602
2023-04-12T01:59:23.327Z,82.23266602
2023-04-12T02:00:23.920Z,82.43408203
2023-04-12T02:01:24.298Z,82.5378418
2023-04-12T02:02:24.960Z,82.74536133
2023-04-12T02:03:25.341Z,82.64160156
2023-04-12T02:04:25.694Z,82.74536133
2023-04-12T02:05:26.156Z,83.05053711
2023-04-12T02:06:26.563Z,83.15429688
2023-04-12T02:07:27.103Z,83.35571289
2023-04-12T02:08:27.631Z,83.56323242
2023-04-12T02:09:28.052Z,83.56323242
2023-04-12T02:10:29.114Z,83.56323242
2023-04-12T02:11:29.521Z,83.56323242
2023-04-12T02:12:30.039Z,83.35571289
2023-04-12T02:13:30.545Z,83.35571289
2023-04-12T02:14:31.040Z,83.35571289
2023-04-12T02:15:31.595Z,83.15429688
2023-04-12T02:16:32.061Z,83.05053711
2023-04-12T02:17:32.807Z,82.84301758
2023-04-12T02:18:33.322Z,83.05053711
2023-04-12T02:19:33.857Z,82.84301758
2023-04-12T02:20:34.471Z,82.94677734
2023-04-12T02:21:34.942Z,82.94677734
2023-04-12T02:22:35.399Z,83.05053711
2023-04-12T02:23:35.888Z,82.64160156
2023-04-12T02:24:36.421Z,82.33642578
2023-04-12T02:25:36.969Z,82.64160156
2023-04-12T02:26:37.411Z,83.05053711
2023-04-12T02:27:37.825Z,83.15429688
2023-04-12T02:28:38.298Z,83.29467773
2023-04-12T02:29:38.908Z,83.25195313
2023-04-12T02:30:39.524Z,83.35571289
2023-04-12T02:31:39.932Z,83.39233398
2023-04-12T02:32:40.393Z,83.19091797
2023-04-12T02:33:40.873Z,82.74536133
2023-04-12T02:34:41.351Z,82.64160156
2023-04-12T02:35:41.886Z,82.5378418
2023-04-12T02:36:42.333Z,82.02514648
2023-04-12T02:37:42.791Z,82.02514648
2023-04-12T02:38:43.272Z,82.57446289
2023-04-12T02:39:43.741Z,82.57446289
2023-04-12T02:41:14.914Z,82.78198242
2023-04-12T02:42:15.477Z,82.67822266
2023-04-12T02:43:15.970Z,82.47680664
2023-04-12T02:44:16.408Z,82.57446289
2023-04-12T02:45:16.974Z,82.47680664
2023-04-12T02:46:17.457Z,82.47680664
2023-04-12T02:47:17.920Z,82.26928711
2023-04-12T02:48:18.461Z,82.16552734
2023-04-12T02:49:18.906Z,82.06787109
2023-04-12T02:50:19.386Z,81.92749023
2023-04-12T02:51:19.922Z,82.02514648
2023-04-12T02:52:20.403Z,82.02514648
2023-04-12T02:53:20.848Z,82.06787109
2023-04-12T02:54:21.293Z,82.16552734
2023-04-12T02:55:21.794Z,82.23266602
2023-04-12T02:56:22.293Z,82.02514648
2023-04-12T02:57:22.854Z,82.02514648
2023-04-12T02:58:23.305Z,81.82373047
2023-04-12T02:59:23.790Z,81.7199707
2023-04-12T03:00:24.282Z,81.92749023
2023-04-12T03:01:25.599Z,82.02514648
2023-04-12T03:02:26.340Z,82.12890625
2023-04-12T03:03:26.710Z,81.92749023
2023-04-12T03:04:27.212Z,81.92749023
2023-04-12T03:05:27.589Z,82.12890625
2023-04-12T03:06:28.368Z,82.12890625
2023-04-12T03:07:28.857Z,82.02514648
2023-04-12T03:08:29.344Z,81.92749023
2023-04-12T03:09:29.807Z,81.61621094
2023-04-12T03:10:30.287Z,82.06787109
2023-04-12T03:11:31.584Z,82.16552734
2023-04-12T03:12:32.021Z,82.47680664
2023-04-12T03:13:32.625Z,82.57446289
2023-04-12T03:14:33.101Z,82.78198242
2023-04-12T03:15:33.662Z,82.88574219
2023-04-12T03:16:34.123Z,82.88574219
2023-04-12T03:17:34.628Z,82.88574219
2023-04-12T03:18:35.173Z,82.88574219
2023-04-12T03:19:35.796Z,82.67822266
2023-04-12T03:20:36.486Z,82.78198242
2023-04-12T03:21:37.577Z,82.88574219
2023-04-12T03:22:37.999Z,82.88574219
2023-04-12T03:23:38.482Z,82.67822266
2023-04-12T03:24:39.023Z,82.67822266
2023-04-12T03:25:39.522Z,82.67822266
2023-04-12T03:26:39.991Z,82.67822266
2023-04-12T03:27:40.493Z,82.78198242
2023-04-12T03:28:41.032Z,82.78198242
2023-04-12T03:29:41.553Z,82.98339844
2023-04-12T03:30:42.096Z,82.78198242
2023-04-12T03:31:42.610Z,82.5378418
2023-04-12T03:32:43.029Z,82.78198242
2023-04-12T03:34:14.131Z,82.88574219
2023-04-12T03:35:14.655Z,82.94677734
2023-04-12T03:36:15.184Z,83.15429688
2023-04-12T03:37:15.754Z,82.84301758
2023-04-12T03:38:16.181Z,82.43408203
2023-04-12T03:39:16.641Z,82.5378418
2023-04-12T03:40:17.144Z,82.74536133
2023-04-12T03:41:18.623Z,82.98339844
2023-04-12T03:42:32.280Z,82.98339844
2023-04-12T03:43:19.705Z,82.98339844
2023-04-12T03:44:20.164Z,83.0871582
2023-04-12T03:45:20.695Z,83.0871582
2023-04-12T03:46:21.330Z,82.98339844
2023-04-12T03:47:21.886Z,82.84301758
2023-04-12T03:48:22.335Z,82.84301758
2023-04-12T03:49:22.804Z,82.84301758
2023-04-12T03:50:23.243Z,82.98339844
2023-04-12T03:51:23.776Z,83.0871582
2023-04-12T03:52:24.247Z,82.84301758
2023-04-12T03:53:24.740Z,82.74536133
2023-04-12T03:54:25.178Z,82.5378418
2023-04-12T03:55:25.655Z,82.43408203
2023-04-12T03:56:26.203Z,82.33642578
2023-04-12T03:57:26.946Z,82.33642578
2023-04-12T03:58:27.561Z,82.33642578
2023-04-12T03:59:28.040Z,82.12890625
2023-04-12T04:00:28.475Z,82.12890625
2023-04-12T04:01:29.076Z,82.12890625
2023-04-12T04:02:29.655Z,82.12890625
2023-04-12T04:03:30.304Z,82.02514648
2023-04-12T04:04:30.757Z,81.92749023
2023-04-12T04:05:31.080Z,81.61621094
2023-04-12T04:06:31.534Z,81.82373047
2023-04-12T04:07:32.064Z,81.7199707
2023-04-12T04:08:32.897Z,81.61621094
2023-04-12T04:09:33.400Z,81.51245117
2023-04-12T04:10:34.043Z,81.51245117
2023-04-12T04:11:34.556Z,81.61621094
2023-04-12T04:12:35.134Z,81.7199707
2023-04-12T04:13:35.721Z,81.7565918
2023-04-12T04:14:36.197Z,81.96411133
2023-04-12T04:15:36.696Z,82.06787109
2023-04-12T04:16:37.312Z,81.96411133
2023-04-12T04:17:37.660Z,81.96411133
2023-04-12T04:18:38.169Z,82.16552734
2023-04-12T04:19:38.667Z,82.26928711
2023-04-12T04:20:39.183Z,82.37304688
2023-04-12T04:21:39.780Z,82.16552734
2023-04-12T04:22:40.129Z,82.26928711
2023-04-12T04:23:40.593Z,82.16552734
2023-04-12T04:24:41.385Z,82.16552734
2023-04-12T04:25:41.943Z,82.37304688
2023-04-12T04:26:42.438Z,82.23266602
2023-04-12T04:28:13.471Z,82.16552734
2023-04-12T04:29:13.978Z,82.02514648
2023-04-12T04:30:14.536Z,81.7199707
2023-04-12T04:31:15.053Z,81.82373047
2023-04-12T04:32:15.497Z,81.82373047
2023-04-12T04:33:15.949Z,81.82373047
2023-04-12T04:34:16.424Z,81.61621094
2023-04-12T04:35:17.136Z,81.41479492
2023-04-12T04:36:17.413Z,81.41479492
2023-04-12T04:37:17.946Z,81.51245117
2023-04-12T04:38:18.366Z,81.61621094
2023-04-12T04:39:18.854Z,81.86035156
2023-04-12T04:40:19.398Z,81.96411133
2023-04-12T04:41:19.856Z,81.96411133
2023-04-12T04:42:21.122Z,82.16552734
2023-04-12T04:43:21.577Z,82.26928711
2023-04-12T04:44:22.014Z,82.16552734
2023-04-12T04:45:22.569Z,82.26928711
2023-04-12T04:46:23.084Z,82.47680664
2023-04-12T04:47:23.783Z,82.57446289
2023-04-12T04:48:24.190Z,82.57446289
2023-04-12T04:49:24.644Z,82.67822266
2023-04-12T04:50:25.134Z,82.67822266
2023-04-12T04:51:25.637Z,82.57446289
2023-04-12T04:52:26.174Z,82.37304688
2023-04-12T04:53:26.638Z,82.26928711
2023-04-12T04:54:27.130Z,82.26928711
2023-04-12T04:55:27.560Z,82.57446289
2023-04-12T04:56:28.083Z,82.88574219
2023-04-12T04:57:28.727Z,82.88574219
2023-04-12T04:58:29.289Z,82.67822266
2023-04-12T04:59:29.834Z,82.37304688
2023-04-12T05:00:30.300Z,82.16552734
2023-04-12T05:01:30.786Z,82.06787109
2023-04-12T05:02:31.346Z,82.16552734
2023-04-12T05:03:31.817Z,82.37304688
2023-04-12T05:04:32.620Z,82.37304688
2023-04-12T05:05:33.045Z,82.26928711
2023-04-12T05:06:33.477Z,82.26928711
2023-04-12T05:07:34.012Z,82.26928711
2023-04-12T05:08:34.443Z,82.26928711
2023-04-12T05:09:35.014Z,82.06787109
2023-04-12T05:10:35.543Z,82.06787109
2023-04-12T05:11:36.142Z,82.16552734
2023-04-12T05:12:36.674Z,82.16552734
2023-04-12T05:13:37.113Z,82.26928711
2023-04-12T05:14:44.430Z,82.37304688
2023-04-12T05:15:38.115Z,82.37304688
2023-04-12T05:16:38.592Z,82.37304688
2023-04-12T05:17:39.123Z,82.06787109
2023-04-12T05:18:39.520Z,81.96411133
2023-04-12T05:19:39.999Z,82.16552734
2023-04-12T05:20:40.483Z,82.16552734
2023-04-12T05:21:40.992Z,82.06787109
2023-04-12T05:22:41.540Z,82.16552734
2023-04-12T05:23:42.359Z,82.06787109
2023-04-12T05:25:13.150Z,81.86035156
2023-04-12T05:26:13.654Z,81.89697266
2023-04-12T05:27:14.153Z,82.20825195
2023-04-12T05:28:14.656Z,82.3059082
2023-04-12T05:29:15.190Z,82.3059082
2023-04-12T05:30:15.744Z,82.3059082
2023-04-12T05:31:16.254Z,82.40966797
2023-04-12T05:32:16.678Z,82.6171875
2023-04-12T05:33:17.147Z,82.6171875
2023-04-12T05:34:17.563Z,82.3059082
2023-04-12T05:35:18.109Z,82.16552734
2023-04-12T05:36:18.579Z,82.16552734
2023-04-12T05:37:19.031Z,82.26928711
2023-04-12T05:38:19.718Z,82.37304688
2023-04-12T05:39:20.714Z,82.16552734
2023-04-12T05:40:20.640Z,82.16552734
2023-04-12T05:41:21.188Z,82.16552734
2023-04-12T05:42:22.193Z,82.16552734
2023-04-12T05:43:22.714Z,81.86035156
2023-04-12T05:44:23.177Z,81.7565918
2023-04-12T05:45:23.633Z,81.55517578
2023-04-12T05:46:24.270Z,81.55517578
2023-04-12T05:47:24.840Z,81.55517578
2023-04-12T05:48:25.431Z,81.65283203
2023-04-12T05:49:25.844Z,81.7565918
2023-04-12T05:50:26.314Z,81.7565918
2023-04-12T05:51:39.936Z,81.86035156
2023-04-12T05:52:27.315Z,81.7199707
2023-04-12T05:53:27.864Z,81.14624023
2023-04-12T05:54:28.286Z,81.04248047
2023-04-12T05:55:28.765Z,81.04248047
2023-04-12T05:56:29.265Z,81.14624023
2023-04-12T05:57:29.830Z,81.20727539
2023-04-12T05:58:30.382Z,81.00585938
2023-04-12T05:59:30.859Z,80.69458008
2023-04-12T06:00:31.303Z,80.59692383
2023-04-12T06:01:32.512Z,80.90209961
2023-04-12T06:02:32.568Z,81.00585938
2023-04-12T06:03:33.232Z,81.10351563
2023-04-12T06:04:48.813Z,81.31103516
2023-04-12T06:05:33.873Z,81.41479492
2023-04-12T06:06:34.316Z,81.41479492
2023-04-12T06:07:34.916Z,81.41479492
2023-04-12T06:08:36.650Z,81.31103516
2023-04-12T06:09:35.861Z,81.20727539
2023-04-12T06:10:36.307Z,81.31103516
2023-04-12T06:11:36.787Z,81.20727539
2023-04-12T06:12:37.224Z,81.00585938
2023-04-12T06:13:37.724Z,81.00585938
2023-04-12T06:14:38.183Z,81.31103516
2023-04-12T06:15:38.722Z,81.51245117
2023-04-12T06:16:40.679Z,81.51245117
2023-04-12T06:17:39.607Z,81.7199707
2023-04-12T06:18:40.098Z,81.82373047
2023-04-12T06:19:40.620Z,81.82373047
2023-04-12T06:20:41.132Z,81.7199707
2023-04-12T06:22:12.025Z,81.61621094
2023-04-12T06:23:12.488Z,81.61621094
2023-04-12T06:24:12.981Z,81.7199707
2023-04-12T06:25:13.555Z,81.57958984
2023-04-12T06:26:14.278Z,81.47583008
2023-04-12T06:27:14.386Z,81.27441406
2023-04-12T06:28:14.806Z,81.27441406
2023-04-12T06:29:15.290Z,81.1706543
2023-04-12T06:30:15.821Z,81.1706543
2023-04-12T06:31:16.335Z,81.06689453
2023-04-12T06:32:16.865Z,81.06689453
2023-04-12T06:33:17.288Z,81.06689453
2023-04-12T06:34:17.820Z,81.1706543
2023-04-12T06:35:18.364Z,81.27441406
2023-04-12T06:36:18.767Z,81.37817383
2023-04-12T06:37:19.271Z,81.47583008
2023-04-12T06:38:19.718Z,81.37817383
2023-04-12T06:39:20.180Z,81.37817383
2023-04-12T06:40:20.646Z,81.47583008
2023-04-12T06:41:21.181Z,81.47583008
2023-04-12T06:42:21.669Z,81.68334961
2023-04-12T06:43:22.165Z,81.57958984
2023-04-12T06:44:22.676Z,81.47583008
2023-04-12T06:45:23.140Z,81.54296875
2023-04-12T06:46:23.613Z,81.74438477
2023-04-12T06:47:24.145Z,81.74438477
2023-04-12T06:48:24.567Z,81.84814453
2023-04-12T06:49:25.008Z,81.84814453
2023-04-12T06:50:25.473Z,81.64672852
2023-04-12T06:51:25.955Z,81.64672852
2023-04-12T06:52:26.469Z,81.64672852
2023-04-12T06:53:26.905Z,81.9519043
2023-04-12T06:54:27.383Z,81.64672852
2023-04-12T06:55:27.830Z,81.23779297
2023-04-12T06:56:28.274Z,81.03027344
2023-04-12T06:57:28.736Z,81.03027344
2023-04-12T06:58:29.435Z,80.92651367
2023-04-12T06:59:29.650Z,80.72509766
2023-04-12T07:00:30.134Z,80.31616211
2023-04-12T07:01:30.623Z,80.31616211
2023-04-12T07:02:31.181Z,80.07202148
2023-04-12T07:03:31.654Z,79.87060547
2023-04-12T07:04:32.104Z,79.87060547
2023-04-12T07:05:32.896Z,80.10864258
2023-04-12T07:06:33.375Z,80.21240234
2023-04-12T07:07:33.863Z,80.01098633
2023-04-12T07:08:34.367Z,80.10864258
2023-04-12T07:09:35.036Z,80.07202148
2023-04-12T07:10:35.475Z,79.66308594
2023-04-12T07:11:35.949Z,79.35791016
2023-04-12T07:12:36.442Z,79.25415039
2023-04-12T07:13:37.003Z,79.35791016
2023-04-12T07:14:37.580Z,79.46166992
2023-04-12T07:15:38.273Z,79.56542969
2023-04-12T07:16:38.681Z,79.97436523
2023-04-12T07:17:39.261Z,80.27954102
2023-04-12T07:18:39.480Z,79.87060547
2023-04-12T07:19:39.953Z,79.46166992
2023-04-12T07:20:40.337Z,79.56542969
2023-04-12T07:22:13.483Z,79.56542969
2023-04-12T07:23:11.845Z,79.35791016
2023-04-12T07:24:12.326Z,79.35791016
2023-04-12T07:25:12.824Z,79.25415039
2023-04-12T07:26:13.277Z,79.56542969
2023-04-12T07:27:13.778Z,79.46166992
2023-04-12T07:28:14.243Z,79.35791016
2023-04-12T07:29:14.692Z,79.05273438
2023-04-12T07:30:15.236Z,79.11987305
2023-04-12T07:31:15.716Z,79.32128906
2023-04-12T07:32:16.206Z,79.32128906
2023-04-12T07:33:19.888Z,79.32128906
2023-04-12T07:34:17.312Z,79.11987305
2023-04-12T07:35:17.730Z,78.60717773
2023-04-12T07:36:18.194Z,78.50341797
2023-04-12T07:37:18.680Z,78.46679688
2023-04-12T07:38:19.129Z,78.40576172
2023-04-12T07:39:19.617Z,78.16162109
2023-04-12T07:40:20.044Z,78.09448242
2023-04-12T07:41:20.575Z,78.16162109
2023-04-12T07:42:21.076Z,78.05786133
2023-04-12T07:43:21.521Z,78.05786133
2023-04-12T07:44:21.972Z,78.16162109
2023-04-12T07:45:22.494Z,78.46679688
2023-04-12T07:46:23.099Z,78.46679688
2023-04-12T07:47:23.494Z,78.36914063
2023-04-12T07:48:24.121Z,78.16162109
2023-04-12T07:49:24.570Z,77.96020508
2023-04-12T07:50:25.062Z,77.75268555
2023-04-12T07:51:25.577Z,77.85644531
2023-04-12T07:52:26.111Z,77.96020508
2023-04-12T07:53:26.682Z,78.46679688
2023-04-12T07:54:27.228Z,78.46679688
2023-04-12T07:55:27.767Z,78.16162109
2023-04-12T07:56:28.201Z,78.36914063
2023-04-12T07:57:28.757Z,78.02124023
2023-04-12T07:58:29.214Z,77.92358398
2023-04-12T07:59:29.676Z,77.71606445
2023-04-12T08:00:30.270Z,77.81982422
2023-04-12T08:01:30.665Z,77.81982422
2023-04-12T08:02:31.250Z,77.51464844
2023-04-12T08:03:31.840Z,77.92358398
2023-04-12T08:04:32.451Z,78.22875977
2023-04-12T08:05:33.092Z,78.49731445
2023-04-12T08:06:34.377Z,79.00390625
2023-04-12T08:07:33.997Z,79.00390625
2023-04-12T08:08:34.624Z,78.69873047
2023-04-12T08:09:35.116Z,78.49731445
2023-04-12T08:10:35.710Z,78.69873047
2023-04-12T08:11:36.386Z,78.90625
2023-04-12T08:12:36.873Z,78.80249023
2023-04-12T08:13:37.374Z,78.80249023
2023-04-12T08:14:39.139Z,78.80249023
2023-04-12T08:15:38.499Z,79.21142578
2023-04-12T08:16:38.770Z,79.4128418
2023-04-12T08:17:39.263Z,79.47998047
2023-04-12T08:18:40.224Z,79.3762207
2023-04-12T08:20:10.932Z,79.3762207
2023-04-12T08:21:11.470Z,79.3762207
2023-04-12T08:22:13.628Z,79.78515625
2023-04-12T08:23:12.458Z,80.1940918
2023-04-12T08:24:12.920Z,80.80444336
2023-04-12T08:25:13.421Z,80.80444336
2023-04-12T08:26:13.909Z,80.70068359
2023-04-12T08:27:14.395Z,80.35888672
2023-04-12T08:28:14.898Z,79.74853516
2023-04-12T08:29:15.376Z,79.44335938
2023-04-12T08:30:15.869Z,79.13818359
2023-04-12T08:31:16.364Z,79.23583984
2023-04-12T08:32:16.872Z,79.44335938
2023-04-12T08:33:17.391Z,79.13818359
2023-04-12T08:34:17.921Z,78.62548828
2023-04-12T08:35:18.447Z,78.42407227
2023-04-12T08:36:18.989Z,78.38745117
2023-04-12T08:37:19.407Z,78.18603516
2023-04-12T08:38:23.586Z,77.87475586
2023-04-12T08:39:20.455Z,77.77709961
2023-04-12T08:40:20.867Z,78.38745117
2023-04-12T08:41:21.368Z,78.69262695
2023-04-12T08:42:21.825Z,78.49121094
2023-04-12T08:43:22.344Z,78.38745117
2023-04-12T08:44:22.948Z,78.18603516
2023-04-12T08:45:23.428Z,77.63671875
2023-04-12T08:46:23.862Z,77.43530273
2023-04-12T08:47:24.320Z,77.33154297
2023-04-12T08:48:24.859Z,77.43530273
2023-04-12T08:49:25.353Z,77.13012695
2023-04-12T08:50:25.908Z,76.72119141
2023-04-12T08:51:26.362Z,76.72119141
2023-04-12T08:52:26.909Z,76.11083984
2023-04-12T08:53:27.475Z,75.80566406
2023-04-12T08:54:28.077Z,75.90942383
2023-04-12T08:55:28.598Z,76.11083984
2023-04-12T08:56:29.154Z,75.80566406
2023-04-12T08:57:31.294Z,76.21459961
2023-04-12T08:58:30.158Z,76.61743164
2023-04-12T08:59:30.694Z,76.21459961
2023-04-12T09:00:31.219Z,76.51977539
2023-04-12T09:01:31.758Z,77.53295898
2023-04-12T09:02:32.262Z,75.50048828
2023-04-12T09:03:33.686Z,73.1262207
2023-04-12T09:04:33.364Z,73.53515625
2023-04-12T09:05:33.683Z,73.84033203
2023-04-12T09:06:34.207Z,74.14550781
2023-04-12T09:07:34.846Z,74.24316406
2023-04-12T09:08:35.283Z,74.4140625
2023-04-12T09:09:35.807Z,73.29711914
2023-04-12T09:10:36.446Z,71.97265625
2023-04-12T09:11:36.862Z,69.63500977
2023-04-12T09:12:37.408Z,69.0246582
2023-04-12T09:13:37.947Z,67.90771484
2023-04-12T09:14:38.497Z,68.51806641
2023-04-12T09:15:38.902Z,70.14160156
2023-04-12T09:17:09.949Z,70.55053711
2023-04-12T09:18:10.426Z,66.58325195
2023-04-12T09:19:10.845Z,65.46630859
2023-04-12T09:20:11.352Z,62.79296875
2023-04-12T09:21:11.839Z,61.57226563
2023-04-12T09:22:12.291Z,59.94873047
2023-04-12T09:23:12.753Z,61.67602539
2023-04-12T09:24:14.887Z,63.50708008
2023-04-12T09:25:13.835Z,65.33203125
2023-04-12T09:26:14.441Z,63.60473633
2023-04-12T09:27:14.906Z,65.43579102
2023-04-12T09:28:15.407Z,66.85791016
2023-04-12T09:29:15.925Z,67.97485352
2023-04-12T09:30:16.482Z,62.08496094
2023-04-12T09:31:17.053Z,58.02001953
2023-04-12T09:32:17.476Z,58.22143555
2023-04-12T09:33:17.900Z,56.49414063
2023-04-12T09:34:18.398Z,55.75561523
2023-04-12T09:35:19.007Z,55.859375
2023-04-12T09:36:19.478Z,55.3527832
2023-04-12T09:37:19.951Z,55.42602539
2023-04-12T09:38:20.472Z,54.4128418
2023-04-12T09:39:20.901Z,54.51049805
2023-04-12T09:40:21.441Z,54.61425781
2023-04-12T09:41:25.187Z,55.01708984
2023-04-12T09:42:33.005Z,54.71801758
2023-04-12T09:43:22.879Z,53.90625
2023-04-12T09:44:23.347Z,53.60107422
2023-04-12T09:45:23.984Z,54.08325195
2023-04-12T09:46:24.437Z,53.87573242
2023-04-12T09:47:24.810Z,53.27148438
2023-04-12T09:48:25.269Z,53.27148438
2023-04-12T09:49:25.730Z,53.27148438
2023-04-12T09:50:26.181Z,53.77807617
2023-04-12T09:51:26.737Z,53.36914063
2023-04-12T09:52:27.236Z,53.27148438
2023-04-12T09:53:27.671Z,53.36914063
2023-04-12T09:54:28.146Z,53.36914063
2023-04-12T09:55:28.638Z,53.24707031
2023-04-12T09:56:29.189Z,53.03955078
2023-04-12T09:57:29.657Z,53.34472656
2023-04-12T09:58:31.639Z,52.83813477
2023-04-12T09:59:30.613Z,52.13012695
2023-04-12T10:00:31.149Z,51.21459961
2023-04-12T10:01:31.772Z,52.2277832
2023-04-12T10:02:32.731Z,51.72119141
2023-04-12T10:03:33.180Z,51.51977539
2023-04-12T10:04:33.827Z,51.62353516
2023-04-12T10:05:34.144Z,51.92871094
2023-04-12T10:06:34.586Z,52.63671875
2023-04-12T10:07:35.117Z,52.43530273
2023-04-12T10:08:35.672Z,52.734375
2023-04-12T10:09:36.144Z,52.53295898
2023-04-12T10:10:36.593Z,52.53295898
2023-04-12T10:11:37.193Z,52.2277832
2023-04-12T10:12:37.666Z,52.13012695
2023-04-12T10:13:38.185Z,52.43530273
2023-04-12T10:15:09.303Z,51.92871094
2023-04-12T10:16:09.942Z,52.13012695
2023-04-12T10:17:10.290Z,52.02636719
2023-04-12T10:18:10.869Z,51.82495117
2023-04-12T10:19:11.350Z,52.43530273
2023-04-12T10:20:11.733Z,52.4597168
2023-04-12T10:21:12.276Z,52.55737305
2023-04-12T10:22:12.719Z,52.25219727
2023-04-12T10:23:13.229Z,52.734375
2023-04-12T10:24:13.714Z,52.63671875
2023-04-12T10:25:14.192Z,52.734375
2023-04-12T10:26:14.647Z,52.43530273
2023-04-12T10:27:15.162Z,52.83813477
2023-04-12T10:28:15.882Z,52.94189453
2023-04-12T10:29:16.434Z,52.8137207
2023-04-12T10:30:16.909Z,52.91748047
2023-04-12T10:31:17.672Z,53.3203125
2023-04-12T10:32:17.946Z,53.62548828
2023-04-12T10:33:18.569Z,53.72314453
2023-04-12T10:34:19.149Z,53.3203125
2023-04-12T10:35:19.617Z,53.19213867
2023-04-12T10:36:20.103Z,52.58789063
2023-04-12T10:37:20.672Z,52.99072266
2023-04-12T10:38:21.189Z,52.08129883
2023-04-12T10:39:21.619Z,52.38647461
2023-04-12T10:40:22.094Z,52.41088867
2023-04-12T10:41:22.627Z,52.8137207
2023-04-12T10:42:23.289Z,52.50854492
2023-04-12T10:43:23.696Z,52.08129883
2023-04-12T10:44:24.159Z,52.20336914
2023-04-12T10:45:24.689Z,51.87988281
2023-04-12T10:46:25.151Z,52.08129883
2023-04-12T10:47:25.808Z,52.58789063
2023-04-12T10:48:26.267Z,52.78930664
2023-04-12T10:49:26.721Z,52.89306641
2023-04-12T10:50:27.214Z,52.89306641
2023-04-12T10:51:27.644Z,53.19213867
2023-04-12T10:52:28.120Z,53.3996582
2023-04-12T10:53:28.649Z,53.09448242
2023-04-12T10:54:29.099Z,53.49731445
2023-04-12T10:55:29.653Z,53.29589844
2023-04-12T10:56:32.091Z,53.93066406
2023-04-12T10:57:30.527Z,53.8269043
2023-04-12T10:58:30.959Z,53.52172852
2023-04-12T10:59:46.967Z,53.11889648
2023-04-12T11:00:31.923Z,52.30712891
2023-04-12T11:01:33.286Z,53.01513672